Time,TemperatureF,DewpointF,PressureIn,WindDirection,WindDirectionDegrees,WindSpeedMPH,WindSpeedGustMPH,Humidity,HourlyPrecipIn,Conditions,Clouds,dailyrainin,SoftwareType,DateUTC
2013-08-30 00:04:00,72.0,72.0,29.78,NNW,332,2.0,4.0,99,0.00,,,0.00,Meteo,2013-08-30 05:04:00,
2013-08-30 00:09:00,72.0,72.0,29.78,WNW,300,1.0,2.0,99,0.00,,,0.00,Meteo,2013-08-30 05:09:00,
2013-08-30 00:14:00,72.0,72.0,29.78,North,0,0.0,0.0,99,0.00,,,0.00,Meteo,2013-08-30 05:14:00,
2013-08-30 00:19:00,72.0,72.0,29.78,South,178,0.0,1.0,99,0.00,,,0.00,Meteo,2013-08-30 05:19:00,
2013-08-30 00:24:00,72.0,72.0,29.78,WSW,244,1.0,2.0,0,0.00,,,0.00,Meteo,2013-08-30 05:24:00,
2013-08-30 00:29:00,72.0,72.0,29.79,North,0,0.0,0.0,99,0.00,,,0.00,Meteo,2013-08-30 05:29:00,
2013-08-30 00:34:00,72.0,72.0,29.79,North,0,0.0,0.0,99,0.00,,,0.00,Meteo,2013-08-30 05:34:00,
2013-08-30 00:39:00,72.0,72.0,29.79,SW,236,0.0,1.0,99,0.00,,,0.00,Meteo,2013-08-30 05:39:00,
2013-08-30 00:44:00,72.0,72.0,29.79,North,0,0.0,0.0,99,0.00,,,0.00,Meteo,2013-08-30 05:44:00,
2013-08-30 00:49:00,72.0,72.0,29.80,SW,234,0.0,1.0,99,0.00,,,0.00,Meteo,2013-08-30 05:49:00,
2013-08-30 00:54:00,72.0,72.0,29.80,North,0,0.0,0.0,99,0.00,,,0.00,Meteo,2013-08-30 05:54:00,
2013-08-30 01:00:00,72.0,72.0,29.79,North,0,0.0,0.0,99,0.00,,,0.00,Meteo,2013-08-30 06:00:00,
2013-08-30 01:05:00,72.0,72.0,29.79,SW,230,0.0,1.0,99,0.00,,,0.00,Meteo,2013-08-30 06:05:00,
2013-08-30 01:10:00,72.0,72.0,29.79,SW,231,0.0,1.0,99,0.00,,,0.00,Meteo,2013-08-30 06:10:00,
2013-08-30 01:15:00,72.0,72.0,29.79,SW,232,0.0,1.0,99,0.00,,,0.00,Meteo,2013-08-30 06:15:00,
2013-08-30 01:20:00,72.0,72.0,29.79,West,268,0.0,1.0,99,0.00,,,0.00,Meteo,2013-08-30 06:20:00,
2013-08-30 01:25:00,72.0,72.0,29.79,SW,218,0.0,1.0,0,0.00,,,0.00,Meteo,2013-08-30 06:25:00,
2013-08-30 01:30:00,73.0,73.0,29.79,SSW,197,0.0,1.0,99,0.00,,,0.00,Meteo,2013-08-30 06:30:00,
2013-08-30 01:35:00,73.0,73.0,29.78,North,0,0.0,0.0,99,0.00,,,0.00,Meteo,2013-08-30 06:35:00,
2013-08-30 01:40:00,73.0,73.0,29.79,SW,229,0.0,1.0,99,0.00,,,0.00,Meteo,2013-08-30 06:40:00,
2013-08-30 01:45:00,73.0,73.0,29.79,West,275,0.0,1.0,0,0.00,,,0.00,Meteo,2013-08-30 06:45:00,
2013-08-30 01:50:00,73.0,73.0,29.79,North,0,0.0,0.0,99,0.00,,,0.00,Meteo,2013-08-30 06:50:00,
2013-08-30 01:55:00,73.0,73.0,29.79,WSW,245,0.0,2.0,99,0.00,,,0.00,Meteo,2013-08-30 06:55:00,
2013-08-30 02:00:00,73.0,73.0,29.79,North,0,0.0,0.0,99,0.00,,,0.00,Meteo,2013-08-30 07:00:00,
2013-08-30 02:05:00,73.0,73.0,29.79,WSW,241,0.0,2.0,0,0.00,,,0.00,Meteo,2013-08-30 07:05:00,
2013-08-30 02:10:00,73.0,73.0,29.79,South,180,0.0,1.0,99,0.00,,,0.00,Meteo,2013-08-30 07:10:00,
2013-08-30 02:15:00,73.0,73.0,29.79,North,0,0.0,0.0,99,0.00,,,0.00,Meteo,2013-08-30 07:15:00,
2013-08-30 02:20:00,73.0,73.0,29.79,North,0,0.0,0.0,0,0.00,,,0.00,Meteo,2013-08-30 07:20:00,
2013-08-30 02:25:00,73.0,73.0,29.79,North,0,0.0,0.0,0,0.00,,,0.00,Meteo,2013-08-30 07:25:00,
2013-08-30 02:30:00,73.0,73.0,29.79,North,0,0.0,0.0,0,0.00,,,0.00,Meteo,2013-08-30 07:30:00,
2013-08-30 02:36:00,73.0,73.0,29.78,South,180,0.0,1.0,0,0.00,,,0.00,Meteo,2013-08-30 07:36:00,
2013-08-30 02:41:00,73.0,73.0,29.78,South,180,0.0,1.0,99,0.00,,,0.00,Meteo,2013-08-30 07:41:00,
2013-08-30 02:46:00,73.0,73.0,29.78,North,0,0.0,0.0,99,0.00,,,0.00,Meteo,2013-08-30 07:46:00,
2013-08-30 02:51:00,73.0,73.0,29.78,North,0,0.0,0.0,99,0.00,,,0.00,Meteo,2013-08-30 07:51:00,
2013-08-30 02:56:00,73.0,73.0,29.78,North,0,0.0,0.0,99,0.00,,,0.00,Meteo,2013-08-30 07:56:00,
2013-08-30 03:01:00,73.0,73.0,29.78,North,0,0.0,0.0,99,0.00,,,0.00,Meteo,2013-08-30 08:01:00,
2013-08-30 03:06:00,73.0,73.0,29.78,SSW,197,1.0,2.0,99,0.00,,,0.00,Meteo,2013-08-30 08:06:00,
2013-08-30 03:11:00,73.0,73.0,29.78,SW,222,0.0,1.0,99,0.00,,,0.00,Meteo,2013-08-30 08:11:00,
2013-08-30 03:16:00,72.0,72.0,29.78,North,0,0.0,0.0,99,0.00,,,0.00,Meteo,2013-08-30 08:16:00,
2013-08-30 03:21:00,72.0,72.0,29.78,West,275,0.0,1.0,99,0.00,,,0.00,Meteo,2013-08-30 08:21:00,
2013-08-30 03:26:00,72.0,72.0,29.77,West,275,0.0,1.0,99,0.00,,,0.00,Meteo,2013-08-30 08:26:00,
2013-08-30 03:31:00,72.0,72.0,29.78,West,274,0.0,1.0,99,0.00,,,0.00,Meteo,2013-08-30 08:31:00,
2013-08-30 03:36:00,72.0,72.0,29.78,North,0,0.0,0.0,99,0.00,,,0.00,Meteo,2013-08-30 08:36:00,
2013-08-30 03:41:00,72.0,72.0,29.78,NW,306,0.0,1.0,99,0.00,,,0.00,Meteo,2013-08-30 08:41:00,
2013-08-30 03:46:00,72.0,72.0,29.78,North,0,0.0,0.0,99,0.00,,,0.00,Meteo,2013-08-30 08:46:00,
2013-08-30 03:51:00,72.0,72.0,29.78,West,275,1.0,4.0,99,0.00,,,0.00,Meteo,2013-08-30 08:51:00,
2013-08-30 03:56:00,72.0,72.0,29.78,West,272,0.0,1.0,0,0.00,,,0.00,Meteo,2013-08-30 08:56:00,
2013-08-30 04:01:00,72.0,72.0,29.78,WNW,299,0.0,1.0,0,0.00,,,0.00,Meteo,2013-08-30 09:01:00,
2013-08-30 04:07:00,72.0,72.0,29.79,North,0,0.0,0.0,99,0.00,,,0.00,Meteo,2013-08-30 09:07:00,
2013-08-30 04:12:00,72.0,72.0,29.80,NNW,338,3.0,4.0,99,0.00,,,0.00,Meteo,2013-08-30 09:12:00,
2013-08-30 04:17:00,72.0,72.0,29.80,NW,319,2.0,5.0,99,0.00,,,0.00,Meteo,2013-08-30 09:17:00,
2013-08-30 04:22:00,72.0,72.0,29.80,NNW,328,2.0,4.0,99,0.00,,,0.00,Meteo,2013-08-30 09:22:00,
2013-08-30 04:27:00,72.0,72.0,29.80,NW,323,4.0,7.0,0,0.00,,,0.00,Meteo,2013-08-30 09:27:00,
2013-08-30 04:32:00,72.0,72.0,29.80,NW,322,2.0,4.0,99,0.00,,,0.00,Meteo,2013-08-30 09:32:00,
2013-08-30 04:37:00,72.0,72.0,29.80,NNW,332,2.0,3.0,99,0.00,,,0.00,Meteo,2013-08-30 09:37:00,
2013-08-30 04:42:00,72.0,72.0,29.80,NNW,332,3.0,5.0,99,0.00,,,0.00,Meteo,2013-08-30 09:42:00,
2013-08-30 04:47:00,72.0,72.0,29.80,NNW,332,1.0,2.0,99,0.00,,,0.00,Meteo,2013-08-30 09:47:00,
2013-08-30 04:52:00,72.0,72.0,29.81,NNW,336,2.0,4.0,99,0.00,,,0.00,Meteo,2013-08-30 09:52:00,
2013-08-30 04:57:00,72.0,72.0,29.81,NNW,338,2.0,3.0,99,0.00,,,0.00,Meteo,2013-08-30 09:57:00,
2013-08-30 05:02:00,71.0,71.0,29.81,NNW,332,3.0,6.0,99,0.00,,,0.00,Meteo,2013-08-30 10:02:00,
2013-08-30 05:07:00,71.0,71.0,29.81,NW,323,2.0,4.0,99,0.00,,,0.00,Meteo,2013-08-30 10:07:00,
2013-08-30 05:12:00,71.0,71.0,29.81,NW,322,6.0,9.0,99,0.00,,,0.00,Meteo,2013-08-30 10:12:00,
2013-08-30 05:17:00,71.0,70.0,29.82,NW,326,4.0,6.0,98,0.00,,,0.00,Meteo,2013-08-30 10:17:00,
2013-08-30 05:22:00,71.0,70.0,29.82,NNW,334,3.0,6.0,98,0.00,,,0.00,Meteo,2013-08-30 10:22:00,
2013-08-30 05:27:00,71.0,71.0,29.82,NNW,341,4.0,6.0,99,0.00,,,0.00,Meteo,2013-08-30 10:27:00,
2013-08-30 05:32:00,71.0,71.0,29.82,NNW,328,5.0,8.0,99,0.00,,,0.00,Meteo,2013-08-30 10:32:00,
2013-08-30 05:37:00,71.0,70.0,29.81,NNW,328,6.0,9.0,98,0.00,,,0.00,Meteo,2013-08-30 10:37:00,
2013-08-30 05:42:00,71.0,71.0,29.82,NNW,345,1.0,2.0,99,0.00,,,0.00,Meteo,2013-08-30 10:42:00,
2013-08-30 05:47:00,71.0,70.0,29.81,NW,326,3.0,6.0,98,0.00,,,0.00,Meteo,2013-08-30 10:47:00,
2013-08-30 05:52:00,70.0,69.0,29.82,NW,326,3.0,5.0,98,0.00,,,0.00,Meteo,2013-08-30 10:52:00,
2013-08-30 05:57:00,70.0,69.0,29.82,NNW,332,3.0,4.0,98,0.00,,,0.00,Meteo,2013-08-30 10:57:00,
2013-08-30 06:02:00,70.0,69.0,29.82,NW,316,3.0,5.0,98,0.00,,,0.00,Meteo,2013-08-30 11:02:00,
2013-08-30 06:07:00,70.0,69.0,29.82,NNW,330,2.0,4.0,98,0.00,,,0.00,Meteo,2013-08-30 11:07:00,
2013-08-30 06:12:00,70.0,69.0,29.82,NNW,330,3.0,5.0,97,0.00,,,0.00,Meteo,2013-08-30 11:12:00,
2013-08-30 06:17:00,70.0,69.0,29.83,NW,324,2.0,4.0,96,0.00,,,0.00,Meteo,2013-08-30 11:17:00,
2013-08-30 06:22:00,70.0,69.0,29.83,NW,314,2.0,4.0,95,0.00,,,0.00,Meteo,2013-08-30 11:22:00,
2013-08-30 06:27:00,70.0,69.0,29.83,NNW,327,2.0,3.0,95,0.00,,,0.00,Meteo,2013-08-30 11:27:00,
2013-08-30 06:32:00,69.0,67.0,29.83,NNW,331,3.0,7.0,94,0.00,,,0.00,Meteo,2013-08-30 11:32:00,
2013-08-30 06:37:00,69.0,67.0,29.83,NW,326,3.0,6.0,93,0.00,,,0.00,Meteo,2013-08-30 11:37:00,
2013-08-30 06:42:00,69.0,67.0,29.83,NNW,333,3.0,5.0,93,0.00,,,0.00,Meteo,2013-08-30 11:42:00,
2013-08-30 06:47:00,69.0,67.0,29.83,NW,317,1.0,3.0,92,0.00,,,0.00,Meteo,2013-08-30 11:47:00,
2013-08-30 06:52:00,69.0,66.0,29.83,NNW,329,2.0,5.0,91,0.00,,,0.00,Meteo,2013-08-30 11:52:00,
2013-08-30 06:57:00,69.0,67.0,29.84,NNW,330,5.0,6.0,92,0.00,,,0.00,Meteo,2013-08-30 11:57:00,
2013-08-30 07:02:00,69.0,66.0,29.84,NNW,327,3.0,6.0,91,0.00,,,0.00,Meteo,2013-08-30 12:02:00,
2013-08-30 07:07:00,69.0,66.0,29.84,NNW,335,4.0,5.0,91,0.00,,,0.00,Meteo,2013-08-30 12:07:00,
2013-08-30 07:12:00,69.0,66.0,29.84,WNW,286,1.0,2.0,91,0.00,,,0.00,Meteo,2013-08-30 12:12:00,
2013-08-30 07:18:00,69.0,66.0,29.84,NNW,345,2.0,4.0,91,0.00,,,0.00,Meteo,2013-08-30 12:18:00,
2013-08-30 07:23:00,69.0,66.0,29.84,NNW,331,5.0,8.0,90,0.00,,,0.00,Meteo,2013-08-30 12:23:00,
2013-08-30 07:28:00,70.0,67.0,29.84,NW,326,5.0,8.0,90,0.00,,,0.00,Meteo,2013-08-30 12:28:00,
2013-08-30 07:33:00,70.0,67.0,29.85,NNW,341,2.0,6.0,90,0.00,,,0.00,Meteo,2013-08-30 12:33:00,
2013-08-30 07:38:00,70.0,67.0,29.85,North,350,0.0,2.0,90,0.00,,,0.00,Meteo,2013-08-30 12:38:00,
2013-08-30 07:43:00,70.0,67.0,29.85,NNW,330,3.0,6.0,89,0.00,,,0.00,Meteo,2013-08-30 12:43:00,
2013-08-30 07:48:00,70.0,67.0,29.85,NNW,334,5.0,11.0,89,0.00,,,0.00,Meteo,2013-08-30 12:48:00,
2013-08-30 07:53:00,70.0,67.0,29.85,North,11,2.0,3.0,89,0.00,,,0.00,Meteo,2013-08-30 12:53:00,
2013-08-30 07:58:00,70.0,67.0,29.85,NNW,345,2.0,4.0,89,0.00,,,0.00,Meteo,2013-08-30 12:58:00,
2013-08-30 08:04:00,70.0,67.0,29.86,NNE,17,2.0,4.0,91,0.00,,,0.00,Meteo,2013-08-30 13:04:00,
2013-08-30 08:09:00,69.0,67.0,29.86,NW,326,1.0,4.0,93,0.00,,,0.00,Meteo,2013-08-30 13:09:00,
2013-08-30 08:14:00,69.0,68.0,29.86,NNW,345,2.0,7.0,95,0.00,,,0.00,Meteo,2013-08-30 13:14:00,
2013-08-30 08:19:00,69.0,68.0,29.86,North,11,1.0,2.0,96,0.00,,,0.00,Meteo,2013-08-30 13:19:00,
2013-08-30 08:24:00,69.0,68.0,29.86,North,0,2.0,3.0,96,0.00,,,0.00,Meteo,2013-08-30 13:24:00,
2013-08-30 08:29:00,69.0,68.0,29.86,ENE,58,2.0,4.0,97,0.00,,,0.00,Meteo,2013-08-30 13:29:00,
2013-08-30 08:34:00,69.0,68.0,29.87,NNE,28,3.0,7.0,96,0.00,,,0.00,Meteo,2013-08-30 13:34:00,
2013-08-30 08:39:00,69.0,68.0,29.87,ENE,67,5.0,11.0,95,0.00,,,0.00,Meteo,2013-08-30 13:39:00,
2013-08-30 08:44:00,69.0,67.0,29.87,NE,49,3.0,4.0,94,0.00,,,0.00,Meteo,2013-08-30 13:44:00,
2013-08-30 08:50:00,69.0,67.0,29.87,NE,42,3.0,4.0,93,0.00,,,0.00,Meteo,2013-08-30 13:50:00,
2013-08-30 08:55:00,69.0,67.0,29.87,ENE,74,3.0,6.0,93,0.00,,,0.00,Meteo,2013-08-30 13:55:00,
2013-08-30 09:00:00,70.0,68.0,29.87,ENE,72,3.0,5.0,94,0.00,,,0.00,Meteo,2013-08-30 14:00:00,
2013-08-30 09:05:00,70.0,68.0,29.87,East,79,3.0,6.0,92,0.00,,,0.00,Meteo,2013-08-30 14:05:00,
2013-08-30 09:10:00,70.0,67.0,29.87,NE,56,2.0,5.0,89,0.00,,,0.00,Meteo,2013-08-30 14:10:00,
2013-08-30 09:15:00,70.0,67.0,29.88,NE,39,2.0,4.0,89,0.00,,,0.00,Meteo,2013-08-30 14:15:00,
2013-08-30 09:20:00,71.0,68.0,29.88,NE,44,2.0,3.0,89,0.00,,,0.00,Meteo,2013-08-30 14:20:00,
2013-08-30 09:25:00,71.0,68.0,29.88,ENE,69,1.0,2.0,89,0.00,,,0.00,Meteo,2013-08-30 14:25:00,
2013-08-30 09:30:00,71.0,67.0,29.88,ENE,72,2.0,5.0,88,0.00,,,0.00,Meteo,2013-08-30 14:30:00,
2013-08-30 09:35:00,71.0,67.0,29.88,ENE,68,4.0,6.0,88,0.00,,,0.00,Meteo,2013-08-30 14:35:00,
2013-08-30 09:40:00,71.0,67.0,29.88,NNE,16,2.0,4.0,87,0.00,,,0.00,Meteo,2013-08-30 14:40:00,
2013-08-30 09:45:00,71.0,67.0,29.89,ENE,65,2.0,4.0,86,0.00,,,0.00,Meteo,2013-08-30 14:45:00,
2013-08-30 09:50:00,71.0,67.0,29.89,NE,53,1.0,3.0,87,0.00,,,0.00,Meteo,2013-08-30 14:50:00,
2013-08-30 09:55:00,71.0,67.0,29.89,NNW,332,1.0,4.0,88,0.00,,,0.00,Meteo,2013-08-30 14:55:00,
2013-08-30 10:00:00,71.0,67.0,29.89,NNW,346,2.0,2.0,87,0.00,,,0.00,Meteo,2013-08-30 15:00:00,
2013-08-30 10:05:00,71.0,67.0,29.89,ENE,70,1.0,3.0,87,0.00,,,0.00,Meteo,2013-08-30 15:05:00,
2013-08-30 10:10:00,72.0,68.0,29.89,NW,323,1.0,3.0,87,0.00,,,0.00,Meteo,2013-08-30 15:10:00,
2013-08-30 10:15:00,72.0,68.0,29.89,NNW,340,3.0,5.0,86,0.00,,,0.00,Meteo,2013-08-30 15:15:00,
2013-08-30 10:21:00,73.0,68.0,29.89,North,6,1.0,4.0,84,0.00,,,0.00,Meteo,2013-08-30 15:21:00,
2013-08-30 10:26:00,73.0,67.0,29.89,NNW,347,2.0,3.0,82,0.00,,,0.00,Meteo,2013-08-30 15:26:00,
2013-08-30 10:31:00,73.0,67.0,29.89,NNE,24,3.0,6.0,81,0.00,,,0.00,Meteo,2013-08-30 15:31:00,
2013-08-30 10:36:00,73.0,67.0,29.89,NNW,347,2.0,4.0,81,0.00,,,0.00,Meteo,2013-08-30 15:36:00,
2013-08-30 10:41:00,73.0,67.0,29.89,NNW,335,2.0,4.0,81,0.00,,,0.00,Meteo,2013-08-30 15:41:00,
2013-08-30 10:46:00,73.0,67.0,29.90,NE,49,2.0,4.0,81,0.00,,,0.00,Meteo,2013-08-30 15:46:00,
2013-08-30 10:51:00,73.0,66.0,29.90,NNW,342,3.0,7.0,80,0.00,,,0.00,Meteo,2013-08-30 15:51:00,
2013-08-30 10:56:00,73.0,68.0,29.90,NE,53,2.0,4.0,83,0.00,,,0.00,Meteo,2013-08-30 15:56:00,
2013-08-30 11:01:00,73.0,68.0,29.90,ENE,69,3.0,8.0,83,0.00,,,0.00,Meteo,2013-08-30 16:01:00,
2013-08-30 11:06:00,74.0,67.0,29.90,NNE,18,2.0,4.0,80,0.00,,,0.00,Meteo,2013-08-30 16:06:00,
2013-08-30 11:11:00,73.0,66.0,29.90,NE,42,2.0,5.0,80,0.00,,,0.00,Meteo,2013-08-30 16:11:00,
2013-08-30 11:16:00,73.0,66.0,29.90,NNW,348,3.0,7.0,78,0.00,,,0.00,Meteo,2013-08-30 16:16:00,
2013-08-30 11:21:00,73.0,66.0,29.91,North,11,2.0,4.0,79,0.00,,,0.00,Meteo,2013-08-30 16:21:00,
2013-08-30 11:26:00,73.0,66.0,29.91,North,0,3.0,5.0,79,0.00,,,0.00,Meteo,2013-08-30 16:26:00,
2013-08-30 11:31:00,73.0,66.0,29.91,North,352,2.0,5.0,78,0.00,,,0.00,Meteo,2013-08-30 16:31:00,
2013-08-30 11:36:00,74.0,67.0,29.91,NNE,12,2.0,3.0,79,0.00,,,0.00,Meteo,2013-08-30 16:36:00,
2013-08-30 11:41:00,73.0,66.0,29.91,North,359,2.0,4.0,79,0.00,,,0.00,Meteo,2013-08-30 16:41:00,
2013-08-30 11:46:00,73.0,66.0,29.91,North,352,2.0,4.0,79,0.00,,,0.00,Meteo,2013-08-30 16:46:00,
2013-08-30 11:51:00,73.0,66.0,29.91,NNE,26,2.0,3.0,79,0.00,,,0.00,Meteo,2013-08-30 16:51:00,
2013-08-30 11:56:00,74.0,66.0,29.91,ENE,73,4.0,9.0,75,0.00,,,0.00,Meteo,2013-08-30 16:56:00,
2013-08-30 12:01:00,74.0,65.0,29.91,ENE,67,2.0,6.0,74,0.00,,,0.00,Meteo,2013-08-30 17:01:00,
2013-08-30 12:06:00,75.0,65.0,29.91,NE,55,3.0,5.0,72,0.00,,,0.00,Meteo,2013-08-30 17:06:00,
2013-08-30 12:11:00,75.0,65.0,29.91,North,5,2.0,5.0,71,0.00,,,0.00,Meteo,2013-08-30 17:11:00,
2013-08-30 12:16:00,75.0,65.0,29.91,NNE,30,3.0,5.0,70,0.00,,,0.00,Meteo,2013-08-30 17:16:00,
2013-08-30 12:21:00,75.0,65.0,29.91,NNE,22,2.0,6.0,70,0.00,,,0.00,Meteo,2013-08-30 17:21:00,
2013-08-30 12:26:00,74.0,64.0,29.91,North,354,1.0,3.0,72,0.00,,,0.00,Meteo,2013-08-30 17:26:00,
2013-08-30 12:31:00,75.0,65.0,29.91,NE,45,3.0,6.0,72,0.00,,,0.00,Meteo,2013-08-30 17:31:00,
2013-08-30 12:36:00,75.0,65.0,29.91,North,360,2.0,4.0,72,0.00,,,0.00,Meteo,2013-08-30 17:36:00,
2013-08-30 12:41:00,75.0,65.0,29.91,NNE,28,4.0,6.0,72,0.00,,,0.00,Meteo,2013-08-30 17:41:00,
2013-08-30 12:46:00,75.0,65.0,29.91,NE,39,3.0,4.0,72,0.00,,,0.00,Meteo,2013-08-30 17:46:00,
2013-08-30 12:51:00,75.0,66.0,29.91,ENE,59,3.0,5.0,73,0.00,,,0.00,Meteo,2013-08-30 17:51:00,
2013-08-30 12:56:00,74.0,65.0,29.91,ENE,58,4.0,5.0,73,0.00,,,0.00,Meteo,2013-08-30 17:56:00,
2013-08-30 13:01:00,75.0,65.0,29.92,East,84,6.0,8.0,71,0.00,,,0.00,Meteo,2013-08-30 18:01:00,
2013-08-30 13:06:00,75.0,65.0,29.92,NNE,32,2.0,4.0,70,0.00,,,0.00,Meteo,2013-08-30 18:06:00,
2013-08-30 13:11:00,75.0,65.0,29.92,East,84,3.0,6.0,70,0.00,,,0.00,Meteo,2013-08-30 18:11:00,
2013-08-30 13:16:00,76.0,66.0,29.92,East,88,5.0,8.0,70,0.00,,,0.00,Meteo,2013-08-30 18:16:00,
2013-08-30 13:21:00,76.0,65.0,29.92,East,87,2.0,4.0,69,0.00,,,0.00,Meteo,2013-08-30 18:21:00,
2013-08-30 13:26:00,77.0,66.0,29.92,East,84,5.0,7.0,69,0.00,,,0.00,Meteo,2013-08-30 18:26:00,
2013-08-30 13:31:00,78.0,66.0,29.92,ENE,78,4.0,6.0,67,0.00,,,0.00,Meteo,2013-08-30 18:31:00,
2013-08-30 13:36:00,78.0,65.0,29.92,East,88,4.0,5.0,65,0.00,,,0.00,Meteo,2013-08-30 18:36:00,
2013-08-30 13:41:00,78.0,65.0,29.92,NE,39,2.0,3.0,64,0.00,,,0.00,Meteo,2013-08-30 18:41:00,
2013-08-30 13:46:00,78.0,65.0,29.92,NE,41,1.0,2.0,64,0.00,,,0.00,Meteo,2013-08-30 18:46:00,
2013-08-30 13:51:00,77.0,65.0,29.92,East,79,4.0,7.0,67,0.00,,,0.00,Meteo,2013-08-30 18:51:00,
2013-08-30 13:56:00,77.0,64.0,29.92,NE,49,3.0,4.0,65,0.00,,,0.00,Meteo,2013-08-30 18:56:00,
2013-08-30 14:01:00,77.0,65.0,29.92,NE,36,2.0,4.0,66,0.00,,,0.00,Meteo,2013-08-30 19:01:00,
2013-08-30 14:06:00,77.0,64.0,29.92,NE,40,3.0,5.0,65,0.00,,,0.00,Meteo,2013-08-30 19:06:00,
2013-08-30 14:11:00,77.0,65.0,29.92,ENE,66,4.0,8.0,67,0.00,,,0.00,Meteo,2013-08-30 19:11:00,
2013-08-30 14:16:00,78.0,65.0,29.92,NE,37,2.0,3.0,65,0.00,,,0.00,Meteo,2013-08-30 19:16:00,
2013-08-30 14:21:00,77.0,66.0,29.92,East,88,4.0,7.0,69,0.00,,,0.00,Meteo,2013-08-30 19:21:00,
2013-08-30 14:26:00,77.0,65.0,29.92,NE,38,1.0,4.0,66,0.00,,,0.00,Meteo,2013-08-30 19:26:00,
2013-08-30 14:31:00,77.0,65.0,29.91,East,88,5.0,6.0,67,0.00,,,0.00,Meteo,2013-08-30 19:31:00,
2013-08-30 14:36:00,78.0,66.0,29.91,ENE,62,3.0,5.0,67,0.00,,,0.00,Meteo,2013-08-30 19:36:00,
2013-08-30 14:41:00,77.0,64.0,29.91,ENE,68,3.0,5.0,65,0.00,,,0.00,Meteo,2013-08-30 19:41:00,
2013-08-30 14:46:00,77.0,64.0,29.91,NE,42,2.0,4.0,65,0.00,,,0.00,Meteo,2013-08-30 19:46:00,
2013-08-30 14:51:00,77.0,65.0,29.91,NE,53,4.0,7.0,67,0.00,,,0.00,Meteo,2013-08-30 19:51:00,
2013-08-30 14:56:00,77.0,65.0,29.91,East,80,3.0,6.0,67,0.00,,,0.00,Meteo,2013-08-30 19:56:00,
2013-08-30 15:01:00,77.0,65.0,29.92,NE,49,3.0,5.0,67,0.00,,,0.00,Meteo,2013-08-30 20:01:00,
2013-08-30 15:06:00,77.0,65.0,29.92,NE,53,4.0,6.0,67,0.00,,,0.00,Meteo,2013-08-30 20:06:00,
2013-08-30 15:11:00,77.0,66.0,29.91,East,80,3.0,6.0,69,0.00,,,0.00,Meteo,2013-08-30 20:11:00,
2013-08-30 15:16:00,77.0,65.0,29.91,ENE,72,3.0,6.0,67,0.00,,,0.00,Meteo,2013-08-30 20:16:00,
2013-08-30 15:21:00,77.0,65.0,29.92,ENE,78,5.0,10.0,67,0.00,,,0.00,Meteo,2013-08-30 20:21:00,
2013-08-30 15:26:00,77.0,66.0,29.92,ENE,72,4.0,6.0,68,0.00,,,0.00,Meteo,2013-08-30 20:26:00,
2013-08-30 15:31:00,76.0,64.0,29.92,ENE,68,5.0,7.0,67,0.00,,,0.00,Meteo,2013-08-30 20:31:00,
2013-08-30 15:36:00,76.0,65.0,29.92,NE,41,2.0,3.0,68,0.00,,,0.00,Meteo,2013-08-30 20:36:00,
2013-08-30 15:41:00,75.0,64.0,29.92,NNE,18,2.0,3.0,69,0.00,,,0.00,Meteo,2013-08-30 20:41:00,
2013-08-30 15:46:00,75.0,65.0,29.92,ENE,72,4.0,7.0,70,0.00,,,0.00,Meteo,2013-08-30 20:46:00,
2013-08-30 15:51:00,75.0,64.0,29.92,NE,48,4.0,5.0,69,0.00,,,0.00,Meteo,2013-08-30 20:51:00,
2013-08-30 15:56:00,75.0,64.0,29.92,NE,44,3.0,4.0,69,0.00,,,0.00,Meteo,2013-08-30 20:56:00,
2013-08-30 16:01:00,75.0,65.0,29.92,ENE,78,3.0,6.0,71,0.00,,,0.00,Meteo,2013-08-30 21:01:00,
2013-08-30 16:06:00,76.0,65.0,29.92,NE,55,2.0,3.0,69,0.00,,,0.00,Meteo,2013-08-30 21:06:00,
2013-08-30 16:11:00,75.0,65.0,29.92,ENE,70,4.0,7.0,70,0.00,,,0.00,Meteo,2013-08-30 21:11:00,
2013-08-30 16:16:00,75.0,64.0,29.92,ENE,77,5.0,7.0,68,0.00,,,0.00,Meteo,2013-08-30 21:16:00,
2013-08-30 16:21:00,76.0,65.0,29.92,ENE,76,4.0,6.0,68,0.00,,,0.00,Meteo,2013-08-30 21:21:00,
2013-08-30 16:26:00,76.0,65.0,29.93,NE,51,3.0,6.0,68,0.00,,,0.00,Meteo,2013-08-30 21:26:00,
2013-08-30 16:31:00,76.0,64.0,29.93,NNE,33,1.0,2.0,67,0.00,,,0.00,Meteo,2013-08-30 21:31:00,
2013-08-30 16:36:00,76.0,64.0,29.93,NE,53,2.0,5.0,67,0.00,,,0.00,Meteo,2013-08-30 21:36:00,
2013-08-30 16:41:00,76.0,64.0,29.93,East,79,2.0,4.0,67,0.00,,,0.00,Meteo,2013-08-30 21:41:00,
2013-08-30 16:46:00,76.0,65.0,29.93,East,93,2.0,3.0,69,0.00,,,0.00,Meteo,2013-08-30 21:46:00,
2013-08-30 16:51:00,76.0,64.0,29.92,East,85,4.0,6.0,67,0.00,,,0.00,Meteo,2013-08-30 21:51:00,
2013-08-30 16:56:00,76.0,65.0,29.92,East,94,3.0,7.0,68,0.00,,,0.00,Meteo,2013-08-30 21:56:00,
2013-08-30 17:01:00,77.0,65.0,29.92,ENE,61,2.0,4.0,66,0.00,,,0.00,Meteo,2013-08-30 22:01:00,
2013-08-30 17:06:00,76.0,63.0,29.92,NNE,33,2.0,5.0,65,0.00,,,0.00,Meteo,2013-08-30 22:06:00,
2013-08-30 17:11:00,76.0,64.0,29.92,East,86,3.0,7.0,66,0.00,,,0.00,Meteo,2013-08-30 22:11:00,
2013-08-30 17:16:00,76.0,64.0,29.92,ENE,70,2.0,3.0,66,0.00,,,0.00,Meteo,2013-08-30 22:16:00,
2013-08-30 17:21:00,76.0,64.0,29.92,ENE,64,1.0,2.0,67,0.00,,,0.00,Meteo,2013-08-30 22:21:00,
2013-08-30 17:26:00,76.0,64.0,29.92,East,94,4.0,5.0,67,0.00,,,0.00,Meteo,2013-08-30 22:26:00,
2013-08-30 17:31:00,77.0,65.0,29.92,ENE,72,4.0,6.0,66,0.00,,,0.00,Meteo,2013-08-30 22:31:00,
2013-08-30 17:36:00,76.0,63.0,29.92,East,88,4.0,7.0,65,0.00,,,0.00,Meteo,2013-08-30 22:36:00,
2013-08-30 17:41:00,76.0,63.0,29.92,ENE,76,3.0,6.0,65,0.00,,,0.00,Meteo,2013-08-30 22:41:00,
2013-08-30 17:46:00,76.0,63.0,29.91,East,79,4.0,7.0,65,0.00,,,0.00,Meteo,2013-08-30 22:46:00,
2013-08-30 17:51:00,76.0,64.0,29.91,East,87,3.0,4.0,67,0.00,,,0.00,Meteo,2013-08-30 22:51:00,
2013-08-30 17:56:00,75.0,64.0,29.91,East,87,2.0,4.0,68,0.00,,,0.00,Meteo,2013-08-30 22:56:00,
2013-08-30 18:01:00,75.0,63.0,29.91,ENE,70,2.0,4.0,67,0.00,,,0.00,Meteo,2013-08-30 23:01:00,
2013-08-30 18:06:00,74.0,63.0,29.91,ENE,73,2.0,3.0,68,0.00,,,0.00,Meteo,2013-08-30 23:06:00,
2013-08-30 18:11:00,74.0,63.0,29.91,ENE,75,2.0,3.0,68,0.00,,,0.00,Meteo,2013-08-30 23:11:00,
2013-08-30 18:16:00,74.0,64.0,29.91,East,91,3.0,5.0,70,0.00,,,0.00,Meteo,2013-08-30 23:16:00,
2013-08-30 18:21:00,74.0,64.0,29.91,ENE,74,3.0,5.0,70,0.00,,,0.00,Meteo,2013-08-30 23:21:00,
2013-08-30 18:26:00,73.0,63.0,29.91,NE,50,1.0,2.0,70,0.00,,,0.00,Meteo,2013-08-30 23:26:00,
2013-08-30 18:31:00,73.0,63.0,29.91,East,79,3.0,5.0,71,0.00,,,0.00,Meteo,2013-08-30 23:31:00,
2013-08-30 18:36:00,74.0,64.0,29.91,East,89,2.0,3.0,71,0.00,,,0.00,Meteo,2013-08-30 23:36:00,
2013-08-30 18:41:00,73.0,63.0,29.91,NE,54,2.0,3.0,71,0.00,,,0.00,Meteo,2013-08-30 23:41:00,
2013-08-30 18:46:00,73.0,63.0,29.91,East,85,2.0,5.0,72,0.00,,,0.00,Meteo,2013-08-30 23:46:00,
2013-08-30 18:51:00,73.0,64.0,29.91,East,93,3.0,4.0,74,0.00,,,0.00,Meteo,2013-08-30 23:51:00,
2013-08-30 18:56:00,73.0,65.0,29.91,East,91,2.0,3.0,75,0.00,,,0.00,Meteo,2013-08-30 23:56:00,
2013-08-30 19:01:00,72.0,64.0,29.91,East,92,2.0,3.0,76,0.00,,,0.00,Meteo,2013-08-31 00:01:00,
2013-08-30 19:06:00,72.0,64.0,29.91,ENE,60,1.0,2.0,76,0.00,,,0.00,Meteo,2013-08-31 00:06:00,
2013-08-30 19:11:00,72.0,64.0,29.90,East,83,1.0,2.0,77,0.00,,,0.00,Meteo,2013-08-31 00:11:00,
2013-08-30 19:16:00,72.0,65.0,29.90,East,83,0.0,1.0,78,0.00,,,0.00,Meteo,2013-08-31 00:16:00,
2013-08-30 19:21:00,71.0,64.0,29.90,East,84,0.0,1.0,79,0.00,,,0.00,Meteo,2013-08-31 00:21:00,
2013-08-30 19:26:00,71.0,64.0,29.90,North,0,0.0,0.0,79,0.00,,,0.00,Meteo,2013-08-31 00:26:00,
2013-08-30 19:31:00,71.0,65.0,29.90,East,84,0.0,1.0,80,0.00,,,0.00,Meteo,2013-08-31 00:31:00,
2013-08-30 19:36:00,71.0,65.0,29.90,North,0,0.0,0.0,81,0.00,,,0.00,Meteo,2013-08-31 00:36:00,
2013-08-30 19:41:00,70.0,64.0,29.90,North,0,0.0,0.0,82,0.00,,,0.00,Meteo,2013-08-31 00:41:00,
2013-08-30 19:46:00,70.0,64.0,29.90,North,0,0.0,0.0,82,0.00,,,0.00,Meteo,2013-08-31 00:46:00,
2013-08-30 19:51:00,70.0,64.0,29.90,North,0,0.0,0.0,82,0.00,,,0.00,Meteo,2013-08-31 00:51:00,
2013-08-30 19:56:00,69.0,63.0,29.90,North,0,0.0,0.0,82,0.00,,,0.00,Meteo,2013-08-31 00:56:00,
2013-08-30 20:01:00,69.0,64.0,29.90,North,0,0.0,0.0,83,0.00,,,0.00,Meteo,2013-08-31 01:01:00,
2013-08-30 20:06:00,69.0,64.0,29.90,North,0,0.0,0.0,83,0.00,,,0.00,Meteo,2013-08-31 01:06:00,
2013-08-30 20:11:00,69.0,64.0,29.89,North,0,0.0,0.0,84,0.00,,,0.00,Meteo,2013-08-31 01:11:00,
2013-08-30 20:16:00,69.0,64.0,29.90,North,0,0.0,0.0,85,0.00,,,0.00,Meteo,2013-08-31 01:16:00,
2013-08-30 20:21:00,69.0,64.0,29.90,North,0,0.0,0.0,85,0.00,,,0.00,Meteo,2013-08-31 01:21:00,
2013-08-30 20:26:00,68.0,64.0,29.90,East,84,1.0,2.0,86,0.00,,,0.00,Meteo,2013-08-31 01:26:00,
2013-08-30 20:31:00,68.0,64.0,29.90,East,84,0.0,1.0,87,0.00,,,0.00,Meteo,2013-08-31 01:31:00,
2013-08-30 20:36:00,68.0,64.0,29.90,East,84,0.0,1.0,87,0.00,,,0.00,Meteo,2013-08-31 01:36:00,
2013-08-30 20:41:00,68.0,64.0,29.90,East,84,0.0,1.0,87,0.00,,,0.00,Meteo,2013-08-31 01:41:00,
2013-08-30 20:46:00,68.0,64.0,29.89,East,84,0.0,1.0,88,0.00,,,0.00,Meteo,2013-08-31 01:46:00,
2013-08-30 20:51:00,68.0,65.0,29.89,East,85,0.0,1.0,89,0.00,,,0.00,Meteo,2013-08-31 01:51:00,
2013-08-30 20:56:00,67.0,64.0,29.89,East,85,0.0,1.0,89,0.00,,,0.00,Meteo,2013-08-31 01:56:00,
2013-08-30 21:01:00,67.0,64.0,29.90,North,0,0.0,0.0,89,0.00,,,0.00,Meteo,2013-08-31 02:01:00,
2013-08-30 21:06:00,67.0,64.0,29.90,North,0,0.0,0.0,90,0.00,,,0.00,Meteo,2013-08-31 02:06:00,
2013-08-30 21:11:00,67.0,64.0,29.90,North,0,0.0,0.0,90,0.00,,,0.00,Meteo,2013-08-31 02:11:00,
2013-08-30 21:16:00,67.0,64.0,29.89,North,0,0.0,0.0,90,0.00,,,0.00,Meteo,2013-08-31 02:16:00,
2013-08-30 21:21:00,67.0,64.0,29.89,North,0,0.0,0.0,91,0.00,,,0.00,Meteo,2013-08-31 02:21:00,
2013-08-30 21:26:00,66.0,63.0,29.89,North,0,0.0,0.0,91,0.00,,,0.00,Meteo,2013-08-31 02:26:00,
2013-08-30 21:31:00,66.0,64.0,29.89,North,0,0.0,0.0,92,0.00,,,0.00,Meteo,2013-08-31 02:31:00,
2013-08-30 21:36:00,66.0,64.0,29.90,North,0,0.0,0.0,92,0.00,,,0.00,Meteo,2013-08-31 02:36:00,
2013-08-30 21:41:00,66.0,64.0,29.90,North,0,0.0,0.0,93,0.00,,,0.00,Meteo,2013-08-31 02:41:00,
2013-08-30 21:46:00,66.0,64.0,29.89,East,85,0.0,1.0,93,0.00,,,0.00,Meteo,2013-08-31 02:46:00,
2013-08-30 21:51:00,66.0,64.0,29.89,North,0,0.0,0.0,93,0.00,,,0.00,Meteo,2013-08-31 02:51:00,
2013-08-30 21:56:00,66.0,64.0,29.89,North,0,0.0,0.0,93,0.00,,,0.00,Meteo,2013-08-31 02:56:00,
2013-08-30 22:01:00,65.0,63.0,29.89,North,0,0.0,0.0,93,0.00,,,0.00,Meteo,2013-08-31 03:01:00,
2013-08-30 22:06:00,65.0,63.0,29.89,North,0,0.0,0.0,94,0.00,,,0.00,Meteo,2013-08-31 03:06:00,
2013-08-30 22:11:00,65.0,63.0,29.89,North,0,0.0,0.0,94,0.00,,,0.00,Meteo,2013-08-31 03:11:00,
2013-08-30 22:16:00,65.0,63.0,29.89,North,0,0.0,0.0,94,0.00,,,0.00,Meteo,2013-08-31 03:16:00,
2013-08-30 22:21:00,65.0,63.0,29.89,North,0,0.0,0.0,94,0.00,,,0.00,Meteo,2013-08-31 03:21:00,
2013-08-30 22:26:00,65.0,64.0,29.89,North,0,0.0,0.0,95,0.00,,,0.00,Meteo,2013-08-31 03:26:00,
2013-08-30 22:31:00,65.0,63.0,29.89,East,85,0.0,1.0,94,0.00,,,0.00,Meteo,2013-08-31 03:31:00,
2013-08-30 22:36:00,65.0,64.0,29.89,North,0,0.0,0.0,95,0.00,,,0.00,Meteo,2013-08-31 03:36:00,
2013-08-30 22:41:00,65.0,64.0,29.89,North,0,0.0,0.0,95,0.00,,,0.00,Meteo,2013-08-31 03:41:00,
2013-08-30 22:46:00,65.0,64.0,29.90,North,0,0.0,0.0,95,0.00,,,0.00,Meteo,2013-08-31 03:46:00,
2013-08-30 22:51:00,65.0,64.0,29.90,North,0,0.0,0.0,95,0.00,,,0.00,Meteo,2013-08-31 03:51:00,
2013-08-30 22:56:00,65.0,64.0,29.90,North,0,0.0,0.0,95,0.00,,,0.00,Meteo,2013-08-31 03:56:00,
2013-08-30 23:01:00,64.0,63.0,29.90,North,0,0.0,0.0,95,0.00,,,0.00,Meteo,2013-08-31 04:01:00,
2013-08-30 23:03:00,64.0,63.0,29.90,East,85,0.0,1.0,95,0.00,,,0.00,Meteo,2013-08-31 04:03:00,
2013-08-30 23:04:00,64.0,63.0,29.90,North,0,0.0,0.0,95,0.00,,,0.00,Meteo,2013-08-31 04:04:00,
2013-08-30 23:06:00,64.0,62.0,29.90,North,0,0.0,0.0,94,0.00,,,0.00,Meteo,2013-08-31 04:06:00,
2013-08-30 23:11:00,64.0,63.0,29.89,North,0,0.0,0.0,95,0.00,,,0.00,Meteo,2013-08-31 04:11:00,
2013-08-30 23:16:00,64.0,63.0,29.90,North,0,0.0,0.0,95,0.00,,,0.00,Meteo,2013-08-31 04:16:00,
2013-08-30 23:21:00,64.0,63.0,29.89,North,0,0.0,0.0,95,0.00,,,0.00,Meteo,2013-08-31 04:21:00,
2013-08-30 23:26:00,64.0,63.0,29.89,North,0,0.0,0.0,95,0.00,,,0.00,Meteo,2013-08-31 04:26:00,
2013-08-30 23:30:00,64.0,63.0,29.89,North,0,0.0,0.0,95,0.00,,,0.00,Meteo,2013-08-31 04:30:00,
2013-08-30 23:33:00,64.0,63.0,29.89,North,0,0.0,0.0,96,0.00,,,0.00,Meteo,2013-08-31 04:33:00,
2013-08-30 23:38:00,64.0,63.0,29.90,North,0,0.0,0.0,96,0.00,,,0.00,Meteo,2013-08-31 04:38:00,
2013-08-30 23:43:00,64.0,63.0,29.90,North,0,0.0,0.0,96,0.00,,,0.00,Meteo,2013-08-31 04:43:00,
2013-08-30 23:48:00,64.0,63.0,29.90,North,0,0.0,0.0,96,0.00,,,0.00,Meteo,2013-08-31 04:48:00,
2013-08-30 23:53:00,64.0,63.0,29.90,North,0,0.0,0.0,96,0.00,,,0.00,Meteo,2013-08-31 04:53:00,
2013-08-30 23:58:00,64.0,63.0,29.90,North,0,0.0,0.0,96,0.00,,,0.00,Meteo,2013-08-31 04:58:00,